Time;durP1;ratioP1;P1;durP2;ratioP2;P2;SDS_P1;SDS_P2;PMS_P1;PMS_P2;Temp;Humidity;BMP_temperature;BMP_pressure;BME280_temperature;BME280_humidity;BME280_pressure;Samples;Min_cycle;Max_cycle;Signal;HPM_P1;HPM_P2
2023/09/23 00:02:40;;;;;;;12.93;5.20;;;;;;;23.18;54.95;100017.28;2332201;75;50652;-75
2023/09/23 00:05:41;;;;;;;12.13;4.62;;;;;;;23.17;54.93;100012.95;2331882;75;22229;-74
2023/09/23 00:08:45;;;;;;;13.30;4.25;;;;;;;23.20;54.74;100024.63;2332241;75;50261;-75
2023/09/23 00:11:47;;;;;;;13.32;4.58;;;;;;;23.21;54.68;100018.70;2360755;75;22442;-74
2023/09/23 00:14:49;;;;;;;13.72;4.83;;;;;;;23.21;54.63;100030.84;2353714;74;51448;-75
2023/09/23 00:17:53;;;;;;;10.93;4.55;;;;;;;23.21;54.61;100042.99;2353872;74;49871;-74
2023/09/23 00:20:55;;;;;;;8.60;4.05;;;;;;;23.19;54.79;100040.51;2312084;75;22327;-75
2023/09/23 00:24:00;;;;;;;10.00;4.45;;;;;;;23.18;54.84;100046.16;2317797;75;50673;-76
2023/09/23 00:27:01;;;;;;;10.88;4.35;;;;;;;23.17;54.79;100053.43;2351662;75;22987;-74
2023/09/23 00:30:05;;;;;;;9.98;4.12;;;;;;;23.17;54.86;100058.83;2317939;75;51457;-73
2023/09/23 00:33:07;;;;;;;10.58;4.42;;;;;;;23.16;54.91;100063.91;2318101;75;51613;-74
2023/09/23 00:36:10;;;;;;;8.48;4.12;;;;;;;23.17;55.00;100054.78;2291620;75;51063;-74
2023/09/23 00:39:13;;;;;;;12.05;4.50;;;;;;;23.16;54.98;100059.86;2351609;75;50719;-75
2023/09/23 00:42:19;;;;;;;7.28;3.33;;;;;;;23.17;54.91;100056.12;2345859;75;50291;-74
2023/09/23 00:45:22;;;;;;;14.45;4.12;;;;;;;23.17;54.95;100050.73;2351156;75;22296;-75
2023/09/23 00:48:23;;;;;;;10.72;4.08;;;;;;;23.17;54.93;100045.33;2318470;75;22291;-75
2023/09/23 00:51:26;;;;;;;12.00;3.83;;;;;;;23.17;54.92;100052.08;2318885;76;52384;-74
2023/09/23 00:54:29;;;;;;;10.55;4.00;;;;;;;23.17;54.96;100038.59;2342640;76;51704;-74
2023/09/23 00:57:33;;;;;;;9.18;3.95;;;;;;;23.18;54.87;100029.95;2343265;75;22360;-73
2023/09/23 01:00:37;;;;;;;12.47;4.22;;;;;;;23.18;54.91;100024.56;2323140;76;52599;-74
2023/09/23 01:03:39;;;;;;;8.53;4.25;;;;;;;23.17;54.72;100018.84;2342921;76;50285;-76
2023/09/23 01:06:41;;;;;;;8.93;3.62;;;;;;;23.18;54.78;100015.94;2353365;75;50258;-77
2023/09/23 01:09:44;;;;;;;11.12;3.33;;;;;;;23.17;54.77;100018.34;2298369;76;51792;-77
2023/09/23 01:12:46;;;;;;;6.78;3.55;;;;;;;23.19;54.77;100001.91;2343076;76;50276;-74
2023/09/23 01:15:49;;;;;;;7.00;3.52;;;;;;;23.19;54.69;100010.81;2350462;75;50280;-73
2023/09/23 01:18:51;;;;;;;6.83;3.70;;;;;;;23.20;54.69;100019.77;2322288;76;51579;-75
2023/09/23 01:21:54;;;;;;;6.15;3.25;;;;;;;23.18;54.71;100018.62;2314227;76;51474;-75
2023/09/23 01:24:56;;;;;;;5.75;3.37;;;;;;;23.19;54.64;100020.27;2324295;76;51292;-74
2023/09/23 01:28:00;;;;;;;12.10;3.83;;;;;;;23.19;54.63;100012.70;2322232;76;51166;-75
2023/09/23 01:31:02;;;;;;;8.28;3.95;;;;;;;23.17;54.75;100023.74;2350265;75;50280;-73
2023/09/23 01:34:06;;;;;;;5.50;3.20;;;;;;;23.18;54.73;100025.38;2285875;76;51820;-75
2023/09/23 01:37:09;;;;;;;5.83;3.30;;;;;;;23.18;54.70;100034.83;2326177;76;50920;-76
2023/09/23 01:40:18;;;;;;;8.40;3.30;;;;;;;23.18;54.74;100039.41;2343429;76;50762;-75
2023/09/23 01:43:20;;;;;;;8.03;3.55;;;;;;;23.18;54.86;100048.31;2322548;76;50671;-76
2023/09/23 01:46:22;;;;;;;9.68;3.70;;;;;;;23.17;55.06;100044.48;2321641;76;50146;-76
2023/09/23 01:49:24;;;;;;;8.40;3.40;;;;;;;23.15;55.18;100051.48;2276317;76;51710;-78
2023/09/23 01:52:29;;;;;;;8.75;3.47;;;;;;;23.13;55.08;100042.78;2329053;75;50284;-77
2023/09/23 01:55:30;;;;;;;9.48;3.17;;;;;;;23.11;55.15;100032.73;2314894;75;22231;-74
2023/09/23 01:58:33;;;;;;;8.20;3.30;;;;;;;23.13;55.21;100040.61;2263270;76;52379;-75
2023/09/23 02:01:35;;;;;;;6.65;3.62;;;;;;;23.09;55.25;100037.53;2314446;76;50092;-75
2023/09/23 02:04:40;;;;;;;8.93;3.08;;;;;;;23.10;55.26;100031.62;2288522;76;50103;-74
2023/09/23 02:07:41;;;;;;;10.28;3.70;;;;;;;23.10;55.14;100039.20;2289402;76;22252;-73
2023/09/23 02:10:48;;;;;;;5.55;3.10;;;;;;;23.10;55.15;100043.77;2288761;76;50111;-74
2023/09/23 02:13:51;;;;;;;10.95;3.30;;;;;;;23.10;55.16;100055.38;2288504;76;51170;-75
2023/09/23 02:16:55;;;;;;;16.95;3.25;;;;;;;23.09;55.18;100050.20;2288991;76;51340;-75
2023/09/23 02:19:59;;;;;;;9.98;3.12;;;;;;;23.09;55.06;100058.30;2298672;76;50268;-73
2023/09/23 02:23:01;;;;;;;6.53;3.08;;;;;;;23.08;55.06;100057.48;2268839;76;52572;-74
2023/09/23 02:26:03;;;;;;;8.38;3.35;;;;;;;23.08;55.06;100058.83;2331720;76;51417;-75
2023/09/23 02:29:06;;;;;;;5.92;2.95;;;;;;;23.06;55.17;100062.27;2296427;76;50211;-74
2023/09/23 02:32:08;;;;;;;11.15;2.83;;;;;;;23.05;55.07;100064.69;2323752;76;51535;-78
2023/09/23 02:35:12;;;;;;;7.50;3.15;;;;;;;23.04;55.13;100063.87;2323728;76;51417;-74
2023/09/23 02:38:15;;;;;;;6.80;2.72;;;;;;;23.04;55.06;100074.66;2296524;76;51584;-75
2023/09/23 02:41:17;;;;;;;5.55;2.70;;;;;;;23.03;55.11;100075.70;2271351;76;52229;-75
2023/09/23 02:44:20;;;;;;;8.05;3.08;;;;;;;23.03;55.10;100074.87;2296245;76;50323;-74
2023/09/23 02:47:22;;;;;;;9.40;2.90;;;;;;;23.02;55.08;100078.11;2324494;76;50343;-74
2023/09/23 02:50:24;;;;;;;7.55;2.60;;;;;;;23.03;55.13;100076.23;2300304;76;50350;-73
2023/09/23 02:53:26;;;;;;;7.78;2.70;;;;;;;23.03;55.11;100075.70;2338168;75;50342;-75
2023/09/23 02:56:30;;;;;;;7.28;2.80;;;;;;;23.03;55.07;100082.97;2312022;76;51077;-76
2023/09/23 02:59:41;;;;;;;4.62;2.80;;;;;;;23.02;55.07;100085.38;2333971;76;51540;-75
2023/09/23 03:02:38;;;;;;;6.53;2.62;;;;;;;23.03;55.07;100093.23;2336809;76;22333;-74
2023/09/23 03:05:44;;;;;;;4.70;2.40;;;;;;;23.03;55.17;100099.16;2311098;76;22741;-75
2023/09/23 03:08:47;;;;;;;5.42;2.80;;;;;;;23.02;55.20;100097.53;2333830;76;22310;-75
2023/09/23 03:11:55;;;;;;;6.30;2.83;;;;;;;23.02;55.21;100109.14;2334034;76;22473;-74
2023/09/23 03:14:54;;;;;;;6.42;2.95;;;;;;;23.01;55.21;100116.09;2337837;75;22835;-74
2023/09/23 03:17:59;;;;;;;7.10;2.45;;;;;;;23.02;55.24;100116.41;2310461;76;50236;-74
2023/09/23 03:21:08;;;;;;;4.08;2.33;;;;;;;23.00;55.21;100118.51;2306896;76;22298;-74
2023/09/23 03:24:10;;;;;;;6.42;2.85;;;;;;;22.99;55.29;100114.99;2333812;76;22221;-73
2023/09/23 03:27:12;;;;;;;8.73;3.17;;;;;;;23.01;55.30;100124.19;2310832;76;51604;-73
2023/09/23 03:30:14;;;;;;;3.08;2.02;;;;;;;23.01;55.27;100118.27;2311895;75;52309;-73
2023/09/23 03:33:22;;;;;;;6.42;2.75;;;;;;;23.02;55.32;100129.91;2310260;76;51596;-74
2023/09/23 03:36:24;;;;;;;6.30;2.75;;;;;;;23.01;55.45;100132.28;2333445;75;31196;-76
2023/09/23 03:39:26;;;;;;;5.12;2.60;;;;;;;23.01;55.37;100133.64;2338470;76;22917;-73
2023/09/23 03:42:30;;;;;;;5.97;2.33;;;;;;;23.00;55.34;100133.34;2333806;75;50631;-74
2023/09/23 03:45:35;;;;;;;3.10;2.02;;;;;;;23.01;55.24;100125.01;2285264;76;50848;-75
2023/09/23 03:48:38;;;;;;;6.55;2.47;;;;;;;23.02;55.23;100128.56;2310453;76;51532;-73
2023/09/23 03:51:40;;;;;;;6.65;2.62;;;;;;;23.00;55.20;100125.25;2311737;76;50691;-72
2023/09/23 03:54:42;;;;;;;9.18;2.40;;;;;;;22.99;55.17;100135.73;2275279;76;50344;-72
2023/09/23 03:57:46;;;;;;;6.80;2.40;;;;;;;22.99;55.16;100143.82;2250617;78;50588;-72
2023/09/23 04:00:49;;;;;;;3.98;2.25;;;;;;;22.98;55.10;100133.56;2250802;76;51530;-72
2023/09/23 04:03:51;;;;;;;4.72;2.50;;;;;;;22.97;55.20;100142.72;2275452;77;50377;-74
2023/09/23 04:06:55;;;;;;;4.97;2.30;;;;;;;22.96;55.24;100146.95;2250549;78;51525;-73
2023/09/23 04:09:57;;;;;;;6.03;2.42;;;;;;;22.96;55.24;100154.51;2251263;77;50399;-73
2023/09/23 04:12:59;;;;;;;4.90;2.37;;;;;;;22.96;55.31;100163.95;2250190;78;50715;-73
2023/09/23 04:16:02;;;;;;;6.30;2.30;;;;;;;22.95;55.27;100164.19;2250471;76;49974;-73
2023/09/23 04:19:04;;;;;;;7.53;2.40;;;;;;;22.95;55.28;100166.89;2239023;76;51670;-74
2023/09/23 04:22:06;;;;;;;10.35;2.80;;;;;;;22.96;55.28;100167.18;2301198;76;51638;-73
2023/09/23 04:25:10;;;;;;;4.62;2.50;;;;;;;22.96;55.28;100170.70;2333752;76;52311;-73
2023/09/23 04:28:12;;;;;;;3.92;2.10;;;;;;;22.96;55.31;100180.14;2310697;76;50460;-74
2023/09/23 04:31:14;;;;;;;8.73;2.27;;;;;;;22.97;55.33;100182.38;2333986;76;51401;-74
2023/09/23 04:34:17;;;;;;;3.90;2.45;;;;;;;22.97;55.32;100174.27;2333679;75;51475;-74
2023/09/23 04:37:19;;;;;;;4.30;2.30;;;;;;;22.99;55.16;100189.69;2338381;75;51471;-74
2023/09/23 04:40:21;;;;;;;7.62;2.37;;;;;;;22.99;55.22;100198.64;2338325;75;50605;-74
2023/09/23 04:43:25;;;;;;;8.80;2.47;;;;;;;23.02;55.12;100204.93;2310257;76;51864;-73
2023/09/23 04:46:32;;;;;;;8.28;2.30;;;;;;;23.00;55.08;100213.77;2310852;76;51530;-73
2023/09/23 04:49:31;;;;;;;8.18;2.22;;;;;;;23.00;55.03;100216.47;2309641;76;22282;-73
2023/09/23 04:52:34;;;;;;;5.60;2.35;;;;;;;22.99;55.06;100213.98;2315110;76;51514;-73
2023/09/23 04:55:36;;;;;;;4.42;1.90;;;;;;;22.99;55.05;100220.22;2311782;76;50430;-73
2023/09/23 04:58:38;;;;;;;4.08;2.15;;;;;;;23.01;54.99;100219.98;2253650;77;52542;-73
2023/09/23 05:01:40;;;;;;;5.30;2.20;;;;;;;23.00;54.97;100221.86;2278645;77;49893;-73
2023/09/23 05:04:45;;;;;;;6.67;1.98;;;;;;;23.00;54.92;100233.19;2278433;77;50251;-73
2023/09/23 05:07:47;;;;;;;5.60;2.15;;;;;;;22.99;54.93;100235.06;2279569;77;22368;-73
2023/09/23 05:10:49;;;;;;;4.37;2.33;;;;;;;22.98;54.97;100237.44;2278648;77;52191;-74
2023/09/23 05:13:51;;;;;;;6.35;2.30;;;;;;;22.97;55.00;100247.95;2278417;77;51310;-73
2023/09/23 05:16:54;;;;;;;4.35;2.00;;;;;;;22.98;54.97;100259.56;2278710;77;50798;-73
2023/09/23 05:19:56;;;;;;;4.80;1.80;;;;;;;22.96;54.98;100252.17;2299579;76;51634;-73
2023/09/23 05:23:00;;;;;;;7.03;1.87;;;;;;;22.96;55.01;100254.34;2271316;77;50062;-74
2023/09/23 05:26:04;;;;;;;4.87;2.02;;;;;;;22.96;55.02;100256.22;2313449;76;24588;-74
2023/09/23 05:29:06;;;;;;;6.20;2.08;;;;;;;22.95;55.01;100268.89;2313366;75;22197;-75
2023/09/23 05:32:11;;;;;;;6.75;2.35;;;;;;;22.96;55.15;100272.41;2281833;77;51072;-73
2023/09/23 05:35:13;;;;;;;;;;;;;;;22.94;55.11;100282.09;2315824;75;51051;-73
2023/09/23 05:38:16;;;;;;;11.73;1.90;;;;;;;22.98;54.85;100279.80;2282313;77;50222;-74
2023/09/23 05:41:23;;;;;;;9.28;2.00;;;;;;;22.96;54.85;100292.64;2256967;76;52521;-74
2023/09/23 05:44:23;;;;;;;4.92;2.08;;;;;;;22.95;54.77;100293.17;2307054;76;22286;-74
2023/09/23 05:47:25;;;;;;;5.50;1.98;;;;;;;22.92;54.68;100296.31;2313153;75;51479;-74
2023/09/23 05:50:27;;;;;;;11.70;1.90;;;;;;;22.91;54.59;100304.62;2282066;77;50568;-74
2023/09/23 05:53:30;;;;;;;8.90;2.25;;;;;;;22.91;54.41;100316.76;2303069;77;51450;-75
2023/09/23 05:56:32;;;;;;;8.53;2.08;;;;;;;22.93;54.71;100328.16;2245940;78;52490;-74
2023/09/23 05:59:35;;;;;;;7.10;2.22;;;;;;;22.94;54.61;100328.45;2245965;78;50303;-74
2023/09/23 06:02:37;;;;;;;5.97;1.55;;;;;;;23.04;53.13;100322.07;2269133;77;51568;-74
2023/09/23 06:05:40;;;;;;;4.25;1.57;;;;;;;23.04;51.79;100324.27;2221513;77;52591;-74
2023/09/23 06:08:42;;;;;;;5.10;1.50;;;;;;;22.97;51.59;100330.77;2269386;77;51446;-74
2023/09/23 06:11:45;;;;;;;4.62;1.20;;;;;;;22.99;52.05;100329.50;2269320;77;51511;-74
2023/09/23 06:14:48;;;;;;;4.22;1.35;;;;;;;23.01;50.53;100334.66;2270722;77;50287;-74
2023/09/23 06:17:51;;;;;;;4.30;1.50;;;;;;;22.96;50.73;100335.28;2269430;77;51509;-74
2023/09/23 06:20:58;;;;;;;2.12;1.40;;;;;;;22.95;50.69;100339.04;2246352;76;52490;-74
2023/09/23 06:24:01;;;;;;;3.75;1.40;;;;;;;23.01;49.87;100338.18;2304077;75;51500;-74
2023/09/23 06:27:03;;;;;;;3.20;1.12;;;;;;;23.00;49.76;100341.12;2318798;76;50229;-74
2023/09/23 06:30:06;;;;;;;6.72;1.65;;;;;;;23.01;49.07;100349.50;2266229;76;52361;-74
2023/09/23 06:33:10;;;;;;;7.15;1.42;;;;;;;23.13;48.93;100350.45;2291114;76;51945;-74
2023/09/23 06:36:12;;;;;;;6.20;1.47;;;;;;;23.07;48.86;100359.94;2316318;76;51439;-76
2023/09/23 06:39:14;;;;;;;8.30;1.55;;;;;;;23.09;48.95;100358.67;2291644;76;50127;-75
2023/09/23 06:42:16;;;;;;;4.05;1.45;;;;;;;23.10;49.12;100369.79;2291586;76;50270;-75
2023/09/23 06:45:18;;;;;;;12.05;1.55;;;;;;;23.08;49.34;100356.21;2266025;76;51706;-75
2023/09/23 06:48:21;;;;;;;7.75;1.22;;;;;;;23.08;49.65;100362.95;2291745;76;50397;-75
2023/09/23 06:51:23;;;;;;;10.38;1.57;;;;;;;23.03;49.98;100373.88;2308403;76;51490;-75
2023/09/23 06:54:26;;;;;;;8.05;1.60;;;;;;;23.04;50.17;100375.55;2303836;75;52341;-77
2023/09/23 06:57:28;;;;;;;13.98;2.00;;;;;;;23.10;50.20;100381.94;2321656;76;50740;-77
2023/09/23 07:00:30;;;;;;;22.50;2.52;;;;;;;23.18;50.33;100387.05;2342635;75;51430;-78
2023/09/23 07:03:32;;;;;;;29.35;3.58;;;;;;;23.22;50.36;100395.53;2321428;76;51528;-77
2023/09/23 07:06:34;;;;;;;29.23;3.67;;;;;;;23.22;50.71;100397.73;2349658;75;51407;-79
2023/09/23 07:09:37;;;;;;;31.07;3.27;;;;;;;23.21;51.05;100403.33;2293358;75;49445;-76
2023/09/23 07:12:39;;;;;;;39.75;3.05;;;;;;;23.28;51.18;100405.46;2321650;76;50323;-74
2023/09/23 07:15:41;;;;;;;28.95;3.47;;;;;;;23.30;51.21;100409.27;2322457;75;50433;-77
2023/09/23 07:18:45;;;;;;;29.32;3.20;;;;;;;23.31;51.36;100423.09;2322550;74;51199;-77
2023/09/23 07:21:47;;;;;;;28.42;3.22;;;;;;;23.29;51.42;100420.60;2329958;76;50533;-77
2023/09/23 07:24:49;;;;;;;24.35;3.87;;;;;;;23.32;51.29;100426.91;2303532;76;50699;-77
2023/09/23 07:27:51;;;;;;;44.20;4.35;;;;;;;23.34;51.25;100434.27;2283882;77;51495;-77
2023/09/23 07:30:54;;;;;;;48.50;4.80;;;;;;;23.31;51.19;100439.30;2303004;77;51330;-78
2023/09/23 07:33:56;;;;;;;47.20;4.42;;;;;;;23.28;51.44;100437.86;2309562;76;51267;-77
2023/09/23 07:36:58;;;;;;;52.03;4.42;;;;;;;23.28;51.67;100431.64;2284496;77;50261;-77
2023/09/23 07:40:00;;;;;;;28.12;4.17;;;;;;;23.25;51.75;100440.47;2284121;77;50613;-77
2023/09/23 07:43:02;;;;;;;38.48;4.35;;;;;;;23.25;51.83;100444.52;2283869;77;52449;-77
2023/09/23 07:46:05;;;;;;;33.98;3.27;;;;;;;23.23;51.94;100443.91;2309631;75;50651;-77
2023/09/23 07:49:07;;;;;;;47.15;4.08;;;;;;;23.24;51.93;100444.73;2283889;77;53457;-77
2023/09/23 07:52:09;;;;;;;31.52;4.08;;;;;;;23.26;51.95;100444.81;2306617;76;51433;-76
2023/09/23 07:55:11;;;;;;;10.93;2.27;;;;;;;23.31;51.68;100447.39;2319497;75;51486;-76
2023/09/23 07:58:13;;;;;;;25.65;2.75;;;;;;;23.31;50.54;100450.91;2260103;76;52400;-76
2023/09/23 08:01:17;;;;;;;21.87;2.55;;;;;;;23.29;49.86;100461.63;2334036;75;50198;-76
2023/09/23 08:04:19;;;;;;;21.12;2.67;;;;;;;23.33;49.67;100460.16;2312444;76;51494;-76
2023/09/23 08:07:21;;;;;;;15.63;2.58;;;;;;;23.27;49.78;100463.18;2286220;76;52531;-77
2023/09/23 08:10:24;;;;;;;14.78;2.25;;;;;;;23.32;49.58;100471.45;2286401;76;51633;-75
2023/09/23 08:13:26;;;;;;;13.85;2.67;;;;;;;23.28;49.52;100478.88;2311724;75;51417;-76
2023/09/23 08:16:28;;;;;;;15.95;3.00;;;;;;;23.24;49.81;100476.59;2311978;76;50240;-76
2023/09/23 08:19:30;;;;;;;18.85;2.87;;;;;;;23.25;49.90;100479.62;2321998;75;50334;-76
2023/09/23 08:22:35;;;;;;;13.70;3.02;;;;;;;23.26;49.81;100482.61;2293775;76;51769;-76
2023/09/23 08:25:36;;;;;;;11.08;2.80;;;;;;;23.25;49.93;100481.50;2320067;75;21947;-76
2023/09/23 08:28:39;;;;;;;13.60;2.70;;;;;;;23.21;49.94;100491.88;2288755;76;50089;-76
2023/09/23 08:31:42;;;;;;;13.98;2.75;;;;;;;23.19;50.13;100495.84;2263506;76;52467;-76
2023/09/23 08:34:44;;;;;;;26.55;3.17;;;;;;;23.19;50.32;100506.64;2288857;76;51618;-76
2023/09/23 08:37:47;;;;;;;16.55;3.40;;;;;;;23.18;50.29;100508.52;2288956;76;51509;-76
2023/09/23 08:40:49;;;;;;;10.20;2.98;;;;;;;23.15;50.49;100523.80;2288818;76;50586;-76
2023/09/23 08:43:51;;;;;;;13.05;2.92;;;;;;;23.16;50.80;100518.70;2288468;76;50204;-75
2023/09/23 08:46:54;;;;;;;10.25;2.52;;;;;;;23.16;50.78;100528.14;2288555;76;52417;-76
2023/09/23 08:49:56;;;;;;;13.40;3.17;;;;;;;23.16;50.36;100543.52;2324387;75;49884;-75
2023/09/23 08:52:59;;;;;;;15.95;2.98;;;;;;;23.15;50.35;100548.09;2327697;75;50112;-75
2023/09/23 08:56:01;;;;;;;11.78;2.83;;;;;;;23.13;50.27;100558.27;2268334;76;52649;-76
2023/09/23 08:59:03;;;;;;;14.53;3.42;;;;;;;23.11;50.38;100557.66;2334373;75;50609;-76
2023/09/23 09:02:05;;;;;;;10.95;3.17;;;;;;;23.12;50.48;100567.42;2311165;76;51472;-76
2023/09/23 09:05:09;;;;;;;9.43;2.65;;;;;;;23.10;50.46;100569.51;2310931;76;52788;-76
2023/09/23 09:08:11;;;;;;;11.88;3.20;;;;;;;23.10;50.57;100560.06;2311333;76;50635;-76
2023/09/23 09:11:16;;;;;;;9.70;3.40;;;;;;;23.11;50.67;100579.25;2269035;76;51147;-76
2023/09/23 09:14:18;;;;;;;;;;;;;;;23.11;51.29;100591.92;2333195;76;50238;-77
2023/09/23 09:17:21;;;;;;;23.62;4.30;;;;;;;23.16;52.08;100583.48;2334474;76;51600;-77
2023/09/23 09:20:23;;;;;;;16.93;3.95;;;;;;;23.17;52.03;100589.70;2300423;76;52331;-77
2023/09/23 09:23:32;;;;;;;17.82;3.70;;;;;;;23.18;51.81;100590.84;2292994;75;51571;-77
2023/09/23 09:26:42;;;;;;;11.65;3.60;;;;;;;23.19;51.68;100599.23;2297151;76;50328;-77
2023/09/23 09:29:42;;;;;;;15.93;4.42;;;;;;;23.17;51.84;100601.84;2296672;76;22351;-76
2023/09/23 09:32:45;;;;;;;18.32;4.20;;;;;;;23.14;51.91;100609.85;2331919;76;50326;-77
2023/09/23 09:35:47;;;;;;;17.65;3.75;;;;;;;23.14;51.66;100607.67;2332199;76;51262;-78
2023/09/23 09:38:55;;;;;;;13.35;4.03;;;;;;;23.12;51.74;100614.66;2296812;76;52421;-77
2023/09/23 09:41:54;;;;;;;17.85;4.15;;;;;;;23.10;52.08;100605.94;2331781;76;23078;-78
2023/09/23 09:44:57;;;;;;;16.05;3.87;;;;;;;23.11;52.35;100602.72;2298253;76;51196;-77
2023/09/23 09:48:00;;;;;;;13.48;3.35;;;;;;;23.11;52.44;100599.48;2298310;76;52439;-76
2023/09/23 09:51:02;;;;;;;11.00;3.55;;;;;;;23.13;52.45;100598.77;2330492;76;50721;-76
2023/09/23 09:54:04;;;;;;;13.38;3.67;;;;;;;23.14;52.35;100607.16;2261683;77;51717;-78
2023/09/23 09:57:07;;;;;;;18.30;3.70;;;;;;;23.17;52.23;100603.20;2275679;77;51357;-76
2023/09/23 10:00:26;;;;;;;16.90;3.12;;;;;;;23.18;52.12;100604.34;2313693;77;51521;-78
2023/09/23 10:03:13;;;;;;;12.00;3.40;;;;;;;23.18;52.39;100617.84;2278985;77;23468;-77
2023/09/23 10:06:19;;;;;;;22.52;3.42;;;;;;;23.17;52.43;100613.50;2313499;77;50419;-77
2023/09/23 10:09:30;;;;;;;17.62;3.75;;;;;;;23.18;52.52;100617.02;2281915;77;51755;-77
2023/09/23 10:12:33;;;;;;;22.00;3.60;;;;;;;23.19;52.41;100608.69;2281854;77;51538;-76
2023/09/23 10:15:38;;;;;;;19.85;3.37;;;;;;;23.19;52.42;100614.08;2307731;77;50403;-76
2023/09/23 10:18:41;;;;;;;21.82;3.83;;;;;;;23.19;52.53;100614.61;2256854;76;50949;-76
2023/09/23 10:21:45;;;;;;;17.17;3.55;;;;;;;23.19;52.35;100619.48;2348200;75;50658;-75
2023/09/23 10:25:01;;;;;;;21.55;3.12;;;;;;;23.19;52.36;100629.46;2353259;75;50291;-75
2023/09/23 10:28:06;;;;;;;21.77;3.58;;;;;;;23.16;52.50;100637.46;2354113;75;50245;-76
2023/09/23 10:31:10;;;;;;;9.28;2.95;;;;;;;23.15;52.45;100629.07;2354111;74;51457;-75
2023/09/23 10:34:14;;;;;;;15.93;3.20;;;;;;;23.17;52.31;100629.69;2354186;75;23313;-77
2023/09/23 10:37:29;;;;;;;13.85;3.42;;;;;;;23.17;52.38;100635.09;2332651;75;51540;-76
2023/09/23 10:40:31;;;;;;;18.25;3.70;;;;;;;23.15;52.41;100629.07;2354123;74;50390;-76
2023/09/23 10:43:34;;;;;;;24.27;3.55;;;;;;;23.17;52.40;100637.79;2294154;75;52436;-76
2023/09/23 10:46:36;;;;;;;15.58;3.45;;;;;;;23.16;52.42;100629.37;2354017;75;51637;-76
2023/09/23 10:49:38;;;;;;;22.98;3.55;;;;;;;23.17;52.40;100635.59;2331584;75;52109;-76
2023/09/23 10:52:41;;;;;;;18.32;3.80;;;;;;;23.18;52.40;100641.31;2312016;75;51172;-75
2023/09/23 10:55:44;;;;;;;16.87;3.00;;;;;;;23.16;52.44;100636.11;2352193;75;49996;-76
2023/09/23 10:58:46;;;;;;;17.32;3.20;;;;;;;23.16;52.46;100640.69;2313852;76;52419;-76
2023/09/23 11:01:49;;;;;;;15.53;2.70;;;;;;;23.15;52.47;100649.31;2318947;76;50210;-76
2023/09/23 11:04:56;;;;;;;13.62;3.00;;;;;;;23.16;52.51;100658.23;2305399;76;51403;-77
2023/09/23 11:07:58;;;;;;;15.00;3.22;;;;;;;23.15;52.54;100648.49;2279639;76;52433;-75
2023/09/23 11:11:00;;;;;;;13.30;2.77;;;;;;;23.17;52.46;100645.03;2319021;76;50254;-75
2023/09/23 11:14:02;;;;;;;15.28;3.05;;;;;;;23.17;52.42;100645.03;2318743;76;51473;-75
2023/09/23 11:17:04;;;;;;;14.15;3.00;;;;;;;23.18;52.38;100636.73;2319011;76;50214;-76
2023/09/23 11:20:10;;;;;;;15.32;2.87;;;;;;;23.19;52.36;100642.43;2321000;76;50195;-76
2023/09/23 11:23:12;;;;;;;16.23;2.50;;;;;;;23.18;52.33;100642.14;2277155;77;22237;-76
2023/09/23 11:26:14;;;;;;;12.43;2.50;;;;;;;23.18;52.36;100642.14;2248783;78;51236;-76
2023/09/23 11:29:17;;;;;;;15.80;2.55;;;;;;;23.19;52.34;100642.95;2272120;77;51286;-76
2023/09/23 11:32:26;;;;;;;10.30;2.40;;;;;;;23.16;52.36;100650.96;2272150;77;51507;-76
2023/09/23 11:35:28;;;;;;;9.70;2.60;;;;;;;23.14;52.39;100662.48;2249191;77;51529;-75
2023/09/23 11:38:31;;;;;;;14.03;2.77;;;;;;;23.15;52.33;100649.31;2274150;77;50596;-76
2023/09/23 11:41:33;;;;;;;12.30;2.95;;;;;;;23.14;52.35;100661.14;2248780;76;52790;-76
2023/09/23 11:44:35;;;;;;;13.98;2.90;;;;;;;23.13;52.33;100654.09;2249106;78;50012;-76
2023/09/23 11:47:38;;;;;;;16.23;2.92;;;;;;;23.14;52.28;100663.83;2272346;76;51484;-76
2023/09/23 11:50:42;;;;;;;9.30;2.60;;;;;;;23.13;52.29;100659.49;2273949;76;52396;-76
2023/09/23 11:53:45;;;;;;;11.48;2.85;;;;;;;23.12;52.29;100654.29;2290692;76;50625;-76
2023/09/23 11:56:47;;;;;;;9.95;2.52;;;;;;;23.11;52.26;100658.87;2272273;75;51569;-76
2023/09/23 11:59:49;;;;;;;12.25;2.58;;;;;;;23.10;52.26;100663.97;2272251;77;50337;-76
2023/09/23 12:02:51;;;;;;;8.70;2.42;;;;;;;23.13;52.16;100659.49;2272063;76;50031;-76
2023/09/23 12:05:53;;;;;;;12.43;2.62;;;;;;;23.10;52.19;100663.97;2272497;77;50685;-75
2023/09/23 12:08:55;;;;;;;6.85;2.50;;;;;;;23.09;52.18;100666.34;2272379;76;51588;-76
2023/09/23 12:11:58;;;;;;;9.23;2.62;;;;;;;23.08;52.16;100670.09;2249146;78;51540;-76
2023/09/23 12:15:01;;;;;;;9.80;2.65;;;;;;;23.07;52.14;100665.75;2248848;77;52477;-76
2023/09/23 12:18:03;;;;;;;10.80;2.30;;;;;;;23.08;52.13;100662.53;2272582;76;51466;-76
2023/09/23 12:21:05;;;;;;;5.00;1.87;;;;;;;23.09;52.09;100672.27;2305444;76;49983;-77
2023/09/23 12:24:08;;;;;;;6.60;2.27;;;;;;;23.08;52.11;100677.37;2302744;76;50264;-77
2023/09/23 12:27:11;;;;;;;11.63;2.25;;;;;;;23.09;52.08;100687.11;2276644;76;50682;-77
2023/09/23 12:30:17;;;;;;;5.90;2.30;;;;;;;23.08;52.08;100683.59;2276677;77;52540;-78
2023/09/23 12:33:17;;;;;;;4.97;1.87;;;;;;;23.09;52.08;100683.06;2276888;77;22665;-78
2023/09/23 12:36:19;;;;;;;6.22;2.40;;;;;;;23.08;52.08;100690.86;2276929;77;51591;-77
2023/09/23 12:39:24;;;;;;;10.40;2.15;;;;;;;23.08;52.06;100694.39;2251641;77;52297;-75
2023/09/23 12:42:27;;;;;;;6.15;2.12;;;;;;;23.08;52.10;100698.96;2276884;76;50298;-76
2023/09/23 12:45:29;;;;;;;7.95;2.22;;;;;;;23.07;52.05;100712.98;2276944;77;50089;-76
2023/09/23 12:48:31;;;;;;;9.85;2.15;;;;;;;23.08;52.02;100711.93;2298138;76;50538;-76
2023/09/23 12:51:34;;;;;;;8.58;1.87;;;;;;;23.07;52.00;100711.63;2295184;76;51569;-76
2023/09/23 12:54:36;;;;;;;5.97;1.75;;;;;;;23.07;52.02;100718.87;2292189;76;52405;-75
2023/09/23 12:57:38;;;;;;;4.85;1.92;;;;;;;23.05;52.04;100725.85;2315114;76;51449;-76
2023/09/23 13:00:41;;;;;;;7.67;1.65;;;;;;;23.04;52.06;100732.27;2278793;77;51445;-76
2023/09/23 13:03:43;;;;;;;5.30;2.17;;;;;;;23.04;52.05;100724.17;2279652;77;51320;-77
2023/09/23 13:06:47;;;;;;;8.43;2.10;;;;;;;23.03;52.04;100731.97;2278827;77;50274;-76
2023/09/23 13:09:49;;;;;;;6.92;1.90;;;;;;;23.04;52.03;100733.62;2306190;76;51477;-76
2023/09/23 13:12:52;;;;;;;7.15;2.05;;;;;;;23.08;51.95;100751.06;2278748;77;51636;-76
2023/09/23 13:15:54;;;;;;;5.28;1.65;;;;;;;23.10;51.90;100744.94;2311128;77;50634;-77
2023/09/23 13:18:56;;;;;;;6.35;1.87;;;;;;;23.17;51.84;100751.16;2279852;77;52437;-76
2023/09/23 13:21:58;;;;;;;7.05;1.95;;;;;;;23.21;51.79;100751.03;2296361;76;51455;-76
2023/09/23 13:25:00;;;;;;;5.42;1.77;;;;;;;23.26;51.73;100753.92;2302617;76;52000;-76
2023/09/23 13:28:03;;;;;;;8.08;2.05;;;;;;;23.24;51.85;100760.05;2246752;76;52376;-77
2023/09/23 13:31:05;;;;;;;8.03;1.98;;;;;;;23.28;51.80;100759.66;2271896;77;50260;-77
2023/09/23 13:34:07;;;;;;;7.05;1.67;;;;;;;23.29;51.78;100751.84;2302742;76;50713;-76
2023/09/23 13:37:10;;;;;;;3.52;1.77;;;;;;;23.33;51.71;100758.50;2271727;77;50070;-77
2023/09/23 13:40:13;;;;;;;6.25;2.12;;;;;;;23.30;51.82;100773.25;2302897;76;51543;-75
2023/09/23 13:43:15;;;;;;;6.45;1.85;;;;;;;23.29;51.85;100772.92;2247035;77;51719;-77
2023/09/23 13:46:17;;;;;;;6.90;1.87;;;;;;;23.19;51.93;100777.41;2303227;76;51426;-75
2023/09/23 13:49:19;;;;;;;6.40;1.85;;;;;;;23.17;52.04;100792.15;2273414;77;51407;-76
2023/09/23 13:52:22;;;;;;;3.58;1.85;;;;;;;23.16;52.02;100788.63;2255126;75;52572;-76
2023/09/23 13:55:24;;;;;;;6.00;1.92;;;;;;;23.14;52.02;100785.30;2313378;76;50648;-77
2023/09/23 13:58:26;;;;;;;5.25;1.75;;;;;;;23.15;52.01;100781.58;2326585;75;50234;-76
2023/09/23 14:01:31;;;;;;;6.05;1.82;;;;;;;23.16;51.94;100798.59;2342916;76;50242;-76
2023/09/23 14:04:33;;;;;;;6.33;2.13;;;;;;;23.18;51.87;100793.83;2343048;76;50298;-76
2023/09/23 14:07:35;;;;;;;3.58;1.92;;;;;;;23.18;51.89;100796.00;2295515;76;51223;-76